Time;durP1;ratioP1;P1;durP2;ratioP2;P2;SDS_P1;SDS_P2;PMS_P1;PMS_P2;Temp;Humidity;BMP_temperature;BMP_pressure;BME280_temperature;BME280_humidity;BME280_pressure;Samples;Min_cycle;Max_cycle;Signal;HPM_P1;HPM_P2
2022/07/01 00:00:20;;;;;;;5.13;1.30;;;;;;;17.08;100.00;100396.16;6124856;23;20056;-82
2022/07/01 00:02:45;;;;;;;7.68;1.70;;;;;;;16.89;100.00;100397.91;6124683;23;20081;-82
2022/07/01 00:05:11;;;;;;;5.22;1.60;;;;;;;17.10;100.00;100391.53;6124992;23;20229;-81
2022/07/01 00:07:36;;;;;;;5.13;1.60;;;;;;;16.97;100.00;100398.03;6124377;23;20014;-81
2022/07/01 00:10:05;;;;;;;7.45;2.15;;;;;;;16.98;100.00;100396.19;6124602;23;20030;-82
2022/07/01 00:12:31;;;;;;;5.55;1.60;;;;;;;16.86;100.00;100398.19;6124977;23;20009;-81
2022/07/01 00:14:56;;;;;;;4.30;1.40;;;;;;;16.85;100.00;100396.53;6124621;23;20002;-81
2022/07/01 00:17:22;;;;;;;3.63;1.77;;;;;;;16.79;100.00;100391.78;6124114;23;20061;-82
2022/07/01 00:19:48;;;;;;;7.43;2.10;;;;;;;16.74;100.00;100388.72;6124691;23;20009;-82
2022/07/01 00:22:14;;;;;;;5.90;1.52;;;;;;;16.83;100.00;100409.09;6124496;23;20006;-82
2022/07/01 00:24:39;;;;;;;7.13;1.77;;;;;;;16.79;100.00;100399.75;6124528;23;20337;-81
2022/07/01 00:27:04;;;;;;;6.85;2.00;;;;;;;16.79;100.00;100407.69;6124078;23;20009;-81
2022/07/01 00:29:30;;;;;;;9.23;1.92;;;;;;;16.82;100.00;100394.16;6124451;23;20400;-82
2022/07/01 00:31:55;;;;;;;5.45;1.90;;;;;;;16.78;100.00;100398.06;6124713;23;20060;-81
2022/07/01 00:34:20;;;;;;;7.40;2.08;;;;;;;17.01;100.00;100391.44;6124626;23;20076;-82
2022/07/01 00:36:46;;;;;;;3.17;1.50;;;;;;;17.11;100.00;100385.25;6124821;23;20366;-81
2022/07/01 00:39:11;;;;;;;4.65;1.65;;;;;;;17.12;100.00;100390.44;6124554;23;20418;-82
2022/07/01 00:41:37;;;;;;;5.03;1.75;;;;;;;17.16;100.00;100390.94;6124174;23;20425;-82
2022/07/01 00:44:03;;;;;;;3.83;1.50;;;;;;;17.22;100.00;100390.38;6122782;23;20410;-82
2022/07/01 00:46:28;;;;;;;6.10;1.60;;;;;;;17.19;100.00;100383.53;6124541;23;20333;-82
2022/07/01 00:48:56;;;;;;;4.07;1.40;;;;;;;17.08;100.00;100389.06;6124244;23;20006;-81
2022/07/01 00:51:21;;;;;;;3.67;1.55;;;;;;;17.09;100.00;100388.06;6124314;23;20081;-81
2022/07/01 00:53:47;;;;;;;8.23;2.10;;;;;;;16.89;100.00;100379.34;6124674;23;20439;-81
2022/07/01 00:56:13;;;;;;;2.33;1.40;;;;;;;16.86;100.00;100384.94;6124765;23;20032;-80
2022/07/01 00:58:39;;;;;;;6.05;1.52;;;;;;;17.08;100.00;100388.19;6124656;23;20457;-81
2022/07/01 01:01:04;;;;;;;5.38;1.85;;;;;;;17.03;100.00;100391.28;6124272;23;20432;-81
2022/07/01 01:03:30;;;;;;;4.35;1.55;;;;;;;16.91;100.00;100380.03;6124381;23;20005;-81
2022/07/01 01:05:56;;;;;;;7.35;2.05;;;;;;;16.99;100.00;100389.91;6124328;23;20149;-82
2022/07/01 01:08:22;;;;;;;4.22;1.65;;;;;;;16.97;100.00;100381.28;6124218;23;20006;-82
2022/07/01 01:10:48;;;;;;;3.92;1.58;;;;;;;16.98;100.00;100391.75;6124115;23;20337;-82
2022/07/01 01:13:13;;;;;;;3.95;1.80;;;;;;;17.02;100.00;100385.16;6124014;23;20054;-81
2022/07/01 01:15:39;;;;;;;5.70;1.70;;;;;;;17.07;100.00;100387.38;6124380;23;20002;-82
2022/07/01 01:18:06;;;;;;;5.40;1.75;;;;;;;17.29;100.00;100395.91;6124079;23;20073;-81
2022/07/01 01:20:35;;;;;;;4.43;1.48;;;;;;;17.60;100.00;100388.47;6124200;23;20452;-82
2022/07/01 01:23:02;;;;;;;6.60;1.58;;;;;;;17.59;100.00;100387.63;6122623;23;19998;-81
2022/07/01 01:25:27;;;;;;;6.38;1.75;;;;;;;17.44;100.00;100391.78;6124317;23;20002;-82
2022/07/01 01:27:53;;;;;;;6.18;1.85;;;;;;;17.64;100.00;100389.84;6123692;23;20029;-82
2022/07/01 01:30:18;;;;;;;8.85;1.80;;;;;;;17.57;100.00;100388.75;6127030;23;20008;-82
2022/07/01 01:32:43;;;;;;;4.72;1.50;;;;;;;17.62;100.00;100389.16;6127324;23;20072;-82
2022/07/01 01:35:10;;;;;;;2.65;1.42;;;;;;;17.66;100.00;100390.53;6125858;23;20018;-82
2022/07/01 01:37:35;;;;;;;3.13;1.70;;;;;;;17.67;100.00;100391.34;6127254;23;20021;-82
2022/07/01 01:40:01;;;;;;;2.70;1.45;;;;;;;17.67;100.00;100394.00;6127438;23;20014;-82
2022/07/01 01:42:27;;;;;;;4.10;2.08;;;;;;;17.64;100.00;100389.84;6127119;23;20487;-82
2022/07/01 01:44:52;;;;;;;3.38;1.80;;;;;;;17.60;100.00;100396.44;6125537;23;20089;-82
2022/07/01 01:47:17;;;;;;;5.10;1.58;;;;;;;17.40;100.00;100399.22;6127628;23;20006;-82
2022/07/01 01:49:43;;;;;;;7.30;1.58;;;;;;;17.30;100.00;100401.09;6127480;23;20081;-82
2022/07/01 01:52:08;;;;;;;3.97;1.88;;;;;;;17.05;100.00;100400.78;6127430;23;20317;-82
2022/07/01 01:54:36;;;;;;;9.30;1.67;;;;;;;17.09;100.00;100401.31;6127257;23;20025;-82
2022/07/01 01:57:03;;;;;;;3.38;1.70;;;;;;;17.17;100.00;100397.94;6127522;23;20073;-81
2022/07/01 01:59:28;;;;;;;5.00;1.63;;;;;;;17.23;100.00;100402.66;6126999;23;20002;-81
2022/07/01 02:01:53;;;;;;;3.83;1.83;;;;;;;17.21;100.00;100410.75;6126860;23;20310;-81
2022/07/01 02:04:19;;;;;;;10.27;2.40;;;;;;;17.34;100.00;100415.72;6127319;23;20040;-82
2022/07/01 02:06:45;;;;;;;6.85;2.20;;;;;;;17.29;100.00;100410.00;6127139;23;20029;-81
2022/07/01 02:09:10;;;;;;;5.63;2.20;;;;;;;17.22;100.00;100406.31;6127381;23;20006;-82
2022/07/01 02:11:35;;;;;;;7.53;1.83;;;;;;;17.15;100.00;100411.34;6124474;23;20002;-81
2022/07/01 02:14:01;;;;;;;6.68;1.67;;;;;;;17.23;100.00;100418.56;6127125;23;20006;-82
2022/07/01 02:16:27;;;;;;;5.85;2.38;;;;;;;17.35;100.00;100422.69;6127391;23;20016;-82
2022/07/01 02:18:52;;;;;;;6.78;2.30;;;;;;;17.17;100.00;100422.63;6127457;23;20532;-82
2022/07/01 02:21:17;;;;;;;9.45;2.65;;;;;;;17.19;100.00;100423.31;6126913;23;20436;-81
2022/07/01 02:23:43;;;;;;;12.02;2.33;;;;;;;17.24;100.00;100429.03;6126883;23;20006;-81
2022/07/01 02:26:08;;;;;;;3.72;1.75;;;;;;;17.24;100.00;100425.56;6125651;23;20323;-81
2022/07/01 02:28:33;;;;;;;6.60;1.80;;;;;;;17.22;100.00;100420.41;6127198;23;20001;-81
2022/07/01 02:30:59;;;;;;;5.85;1.77;;;;;;;17.34;100.00;100421.03;6127068;23;20090;-81
2022/07/01 02:33:24;;;;;;;6.55;1.60;;;;;;;17.33;100.00;100421.19;6126890;23;20002;-82
2022/07/01 02:35:50;;;;;;;5.85;1.77;;;;;;;17.00;100.00;100426.06;6127222;23;20441;-81
2022/07/01 02:38:15;;;;;;;2.47;1.35;;;;;;;17.01;100.00;100422.44;6127145;23;20006;-81
2022/07/01 02:40:41;;;;;;;3.28;1.75;;;;;;;17.00;100.00;100428.72;6126121;23;20010;-81
2022/07/01 02:43:07;;;;;;;7.57;1.67;;;;;;;16.95;100.00;100423.84;6125276;23;20001;-81
2022/07/01 02:45:32;;;;;;;5.30;1.80;;;;;;;16.77;100.00;100428.22;6125808;23;20157;-81
2022/07/01 02:47:58;;;;;;;4.80;1.40;;;;;;;16.64;100.00;100415.25;6125312;23;20002;-81
2022/07/01 02:50:23;;;;;;;4.55;1.75;;;;;;;16.51;100.00;100418.22;6125477;23;20021;-81
2022/07/01 02:52:48;;;;;;;3.63;1.65;;;;;;;16.41;100.00;100428.84;6125329;23;20025;-81
2022/07/01 02:55:14;;;;;;;4.65;1.50;;;;;;;16.41;100.00;100428.84;6125472;23;20009;-81
2022/07/01 02:57:41;;;;;;;2.78;1.45;;;;;;;16.35;100.00;100423.25;6125863;23;20016;-81
2022/07/01 03:00:12;;;;;;;4.70;1.40;;;;;;;16.40;100.00;100426.31;6125782;23;20511;-81
2022/07/01 03:02:37;;;;;;;1.50;1.17;;;;;;;16.34;100.00;100432.19;6125602;23;20002;-82
2022/07/01 03:05:04;;;;;;;4.90;1.40;;;;;;;16.33;100.00;100434.00;6125439;23;20006;-81
2022/07/01 03:07:30;;;;;;;4.25;1.77;;;;;;;16.25;100.00;100433.84;6124687;23;20432;-81
2022/07/01 03:09:55;;;;;;;2.72;1.30;;;;;;;16.22;100.00;100434.97;6125338;23;20009;-81
2022/07/01 03:12:32;;;;;;;5.28;1.77;;;;;;;16.18;100.00;100435.41;6125449;23;20005;-82
2022/07/01 03:15:02;;;;;;;4.28;1.58;;;;;;;16.12;100.00;100433.31;6125471;23;20069;-81
2022/07/01 03:17:30;;;;;;;3.40;1.42;;;;;;;16.06;100.00;100440.00;6124937;23;20429;-81
2022/07/01 03:19:56;;;;;;;2.72;1.20;;;;;;;15.93;100.00;100439.44;6124873;23;20001;-81
2022/07/01 03:22:24;;;;;;;9.27;1.98;;;;;;;15.70;100.00;100439.66;6125197;23;20362;-82
2022/07/01 03:24:50;;;;;;;2.95;1.48;;;;;;;15.83;100.00;100442.91;6125296;23;20006;-81
2022/07/01 03:27:17;;;;;;;5.38;1.52;;;;;;;15.90;100.00;100445.03;6125559;23;20382;-82
2022/07/01 03:29:42;;;;;;;5.35;2.17;;;;;;;15.73;100.00;100444.69;6125654;23;20077;-81
2022/07/01 03:32:09;;;;;;;4.55;1.83;;;;;;;15.76;100.00;100444.44;6124718;23;20021;-81
2022/07/01 03:34:45;;;;;;;5.60;1.70;;;;;;;15.84;100.00;100446.41;6125490;23;20013;-82
2022/07/01 03:37:12;;;;;;;3.13;1.67;;;;;;;15.78;100.00;100444.31;6125224;23;20005;-81
2022/07/01 03:39:39;;;;;;;2.45;1.70;;;;;;;15.74;100.00;100449.03;6125618;23;20052;-81
2022/07/01 03:42:05;;;;;;;5.70;1.70;;;;;;;15.66;100.00;100454.16;6125026;23;20013;-82
2022/07/01 03:44:31;;;;;;;6.68;2.20;;;;;;;15.61;100.00;100456.34;6125012;23;20013;-81
2022/07/01 03:46:56;;;;;;;6.30;2.10;;;;;;;15.57;100.00;100445.19;6123326;23;20014;-82
2022/07/01 03:49:22;;;;;;;4.43;2.00;;;;;;;15.62;100.00;100456.22;6124737;23;20002;-81
2022/07/01 03:51:48;;;;;;;4.43;1.80;;;;;;;15.51;100.00;100455.50;6123882;23;20337;-81
2022/07/01 03:57:03;;;;;;;3.05;2.20;;;;;;;15.57;100.00;100455.78;6124790;23;20016;-82
2022/07/01 03:59:32;;;;;;;4.53;2.10;;;;;;;15.55;100.00;100462.19;6124842;23;20006;-81
2022/07/01 04:01:58;;;;;;;6.07;2.55;;;;;;;15.53;100.00;100453.56;6124500;23;20013;-82
2022/07/01 04:04:25;;;;;;;5.10;2.72;;;;;;;15.50;100.00;100459.09;6124534;23;20009;-82
2022/07/01 04:06:56;;;;;;;4.00;2.40;;;;;;;15.29;100.00;100452.09;6124471;23;20010;-83
2022/07/01 04:09:22;;;;;;;4.43;2.63;;;;;;;15.49;100.00;100446.84;6121907;23;20330;-81
2022/07/01 04:11:49;;;;;;;5.78;2.90;;;;;;;15.52;100.00;100458.00;6124127;23;20452;-81
2022/07/01 04:14:15;;;;;;;7.45;3.13;;;;;;;15.52;100.00;100462.44;6124446;23;20006;-82
2022/07/01 04:16:40;;;;;;;4.18;2.78;;;;;;;15.55;100.00;100462.19;6124403;23;20081;-82
2022/07/01 04:19:07;;;;;;;7.20;3.85;;;;;;;15.56;100.00;100470.00;6123605;23;20033;-82
2022/07/01 04:24:17;;;;;;;4.20;2.70;;;;;;;15.56;100.00;100466.50;6123175;23;20029;-82
2022/07/01 04:26:43;;;;;;;5.15;2.78;;;;;;;15.47;100.00;100476.91;6124190;23;20011;-82
2022/07/01 04:29:09;;;;;;;5.93;2.55;;;;;;;15.49;100.00;100478.63;6124488;23;19998;-82
2022/07/01 04:31:38;;;;;;;8.38;2.85;;;;;;;15.40;100.00;100483.75;6124460;23;20005;-82
2022/07/01 04:34:04;;;;;;;8.60;3.33;;;;;;;15.47;100.00;100484.84;6124761;23;20002;-82
2022/07/01 04:36:30;;;;;;;7.93;3.38;;;;;;;15.52;100.00;100479.19;6124074;23;19998;-82
2022/07/01 04:38:56;;;;;;;9.80;2.33;;;;;;;15.62;100.00;100477.41;6122951;23;20448;-82
2022/07/01 04:44:07;;;;;;;7.20;2.65;;;;;;;15.92;100.00;100490.75;6123846;23;20009;-82
2022/07/01 04:46:32;;;;;;;4.93;2.42;;;;;;;16.05;100.00;100489.50;6124301;23;20358;-81
2022/07/01 04:48:57;;;;;;;5.40;2.72;;;;;;;16.13;100.00;100491.44;6124260;23;20451;-82
2022/07/01 04:51:23;;;;;;;5.95;2.90;;;;;;;16.29;100.00;100490.06;6124174;23;20090;-82
2022/07/01 04:53:48;;;;;;;6.75;2.90;;;;;;;16.43;100.00;100484.34;6123552;23;20032;-82
2022/07/01 04:56:14;;;;;;;10.50;2.70;;;;;;;16.28;100.00;100489.22;6124127;23;20085;-82
2022/07/01 04:58:39;;;;;;;5.28;2.90;;;;;;;16.54;100.00;100492.13;6124308;23;20372;-82
2022/07/01 05:01:05;;;;;;;3.20;2.38;;;;;;;16.69;100.00;100492.56;6124159;23;20100;-82
2022/07/01 05:03:30;;;;;;;8.27;2.53;;;;;;;16.88;100.00;100497.00;6123894;23;20370;-82
2022/07/01 05:05:55;;;;;;;3.88;2.75;;;;;;;16.89;100.00;100496.03;6124219;23;20437;-82
2022/07/01 05:08:21;;;;;;;6.15;2.53;;;;;;;17.19;100.00;100491.47;6123321;23;20010;-82
2022/07/01 05:10:46;;;;;;;3.95;2.42;;;;;;;17.28;100.00;100489.75;6123934;23;20008;-82
2022/07/01 05:13:12;;;;;;;4.10;2.40;;;;;;;17.12;100.00;100490.38;6124254;23;20013;-82
2022/07/01 05:15:38;;;;;;;4.97;2.63;;;;;;;17.52;100.00;100489.25;6124276;23;19998;-83
2022/07/01 05:23:31;;;;;;;4.05;2.28;;;;;;;17.99;100.00;100487.34;6123120;23;20016;-82
2022/07/01 05:25:56;;;;;;;5.88;2.35;;;;;;;17.81;100.00;100492.59;6124095;23;20010;-82
2022/07/01 05:28:22;;;;;;;3.75;2.00;;;;;;;17.72;100.00;100500.63;6124143;23;20030;-82
2022/07/01 05:30:47;;;;;;;12.70;2.10;;;;;;;18.04;100.00;100502.81;6124011;23;20046;-81
2022/07/01 05:33:12;;;;;;;6.82;2.85;;;;;;;18.20;100.00;100497.66;6123573;23;20002;-81
2022/07/01 05:35:38;;;;;;;6.85;2.05;;;;;;;18.38;100.00;100496.81;6123770;23;20002;-81
2022/07/01 05:38:03;;;;;;;5.85;2.33;;;;;;;18.52;100.00;100501.63;6122926;23;20012;-81
2022/07/01 05:40:28;;;;;;;3.88;1.98;;;;;;;18.62;100.00;100510.34;6124074;23;20036;-81
2022/07/01 05:42:54;;;;;;;4.18;1.58;;;;;;;18.80;100.00;100509.50;6123953;23;20006;-81
2022/07/01 05:45:20;;;;;;;5.22;2.22;;;;;;;18.71;100.00;100507.72;6124048;23;20073;-81
2022/07/01 05:47:45;;;;;;;5.43;2.00;;;;;;;18.36;100.00;100514.75;6123828;23;20497;-82
2022/07/01 05:50:10;;;;;;;2.50;1.50;;;;;;;18.69;100.00;100518.53;6124253;23;20017;-82
2022/07/01 05:52:36;;;;;;;5.82;1.90;;;;;;;18.77;100.00;100512.44;6123145;23;20025;-82
2022/07/01 05:55:01;;;;;;;9.82;2.13;;;;;;;18.60;100.00;100511.47;6123837;23;20006;-82
2022/07/01 05:57:27;;;;;;;3.42;1.40;;;;;;;18.73;100.00;100513.72;6122384;23;20013;-82
2022/07/01 05:59:52;;;;;;;4.70;1.70;;;;;;;18.86;100.00;100524.84;6124127;23;20006;-81
2022/07/01 06:02:17;;;;;;;6.88;1.77;;;;;;;18.91;100.00;100516.38;6123627;23;20081;-82
2022/07/01 06:04:43;;;;;;;7.15;1.85;;;;;;;19.06;100.00;100522.00;6123793;23;20057;-82
2022/07/01 06:07:10;;;;;;;9.13;2.05;;;;;;;19.09;100.00;100525.16;6122492;23;20014;-82
2022/07/01 06:09:36;;;;;;;5.28;1.40;;;;;;;19.37;100.00;100523.16;6123615;23;20036;-82
2022/07/01 06:12:02;;;;;;;7.20;1.42;;;;;;;19.54;100.00;100528.56;6123872;23;19998;-82
2022/07/01 06:14:27;;;;;;;3.42;1.20;;;;;;;19.50;100.00;100536.03;6124185;23;20049;-82
2022/07/01 06:16:52;;;;;;;5.78;1.63;;;;;;;19.57;100.00;100530.91;6125316;23;20455;-82
2022/07/01 06:19:19;;;;;;;3.22;1.58;;;;;;;19.63;100.00;100538.25;6125411;23;20002;-82
2022/07/01 06:21:44;;;;;;;5.25;1.30;;;;;;;19.68;100.00;100538.59;6125253;23;20009;-82
2022/07/01 06:24:10;;;;;;;2.92;1.05;;;;;;;19.79;100.00;100543.69;6125360;23;20010;-81
2022/07/01 06:26:35;;;;;;;4.03;1.40;;;;;;;19.53;100.00;100537.53;6125056;23;20006;-81
2022/07/01 06:29:00;;;;;;;5.50;1.20;;;;;;;19.58;100.00;100545.88;6126005;23;20029;-81
2022/07/01 06:31:26;;;;;;;2.45;0.90;;;;;;;19.29;100.00;100547.06;6125281;23;20061;-82
2022/07/01 06:33:51;;;;;;;3.85;1.00;;;;;;;19.40;100.00;100540.63;6125133;23;20002;-82
2022/07/01 06:36:16;;;;;;;5.32;1.50;;;;;;;19.32;100.00;100546.75;6125869;23;20453;-82
2022/07/01 06:38:42;;;;;;;2.50;1.00;;;;;;;19.20;100.00;100548.03;6123043;23;20073;-82
2022/07/01 06:43:51;;;;;;;6.65;1.15;;;;;;;19.59;100.00;100547.56;6125949;23;20328;-81
2022/07/01 06:46:17;;;;;;;4.57;0.75;;;;;;;19.77;100.00;100551.00;6125844;23;20002;-82
2022/07/01 06:48:42;;;;;;;4.13;1.00;;;;;;;19.97;100.00;100545.41;6125486;23;20010;-82
2022/07/01 06:51:07;;;;;;;4.68;1.00;;;;;;;19.98;100.00;100553.25;6125208;23;20012;-81
2022/07/01 06:53:33;;;;;;;3.95;0.90;;;;;;;20.07;100.00;100550.59;6124487;23;20002;-82
2022/07/01 06:55:58;;;;;;;3.80;0.93;;;;;;;19.83;100.00;100551.34;6123494;23;20062;-82
2022/07/01 06:58:24;;;;;;;3.60;1.00;;;;;;;19.59;100.00;100555.56;6125000;23;20001;-82
2022/07/01 07:00:49;;;;;;;2.40;0.95;;;;;;;19.97;100.00;100558.72;6125457;23;20005;-82
2022/07/01 07:03:14;;;;;;;4.13;1.00;;;;;;;20.09;100.00;100554.75;6125103;23;20006;-81
2022/07/01 07:05:40;;;;;;;4.68;0.93;;;;;;;20.13;100.00;100550.78;6125540;23;20132;-82
2022/07/01 07:08:05;;;;;;;5.20;1.17;;;;;;;19.83;100.00;100552.19;6124316;23;20010;-82
2022/07/01 07:10:30;;;;;;;5.82;1.27;;;;;;;19.35;100.00;100546.44;6125346;23;20006;-81
2022/07/01 07:12:56;;;;;;;3.22;1.30;;;;;;;19.95;100.00;100556.22;6125534;23;20355;-81
2022/07/01 07:15:21;;;;;;;4.70;1.13;;;;;;;20.04;100.00;100550.91;6125679;23;20077;-82
2022/07/01 07:17:46;;;;;;;7.63;1.30;;;;;;;20.07;100.00;100554.09;6125787;23;20010;-82
2022/07/01 07:20:12;;;;;;;9.77;1.23;;;;;;;20.16;100.00;100554.94;6124335;23;20032;-82
2022/07/01 07:22:37;;;;;;;6.70;1.58;;;;;;;19.49;100.00;100555.69;6125929;23;20004;-82
2022/07/01 07:25:03;;;;;;;4.78;1.30;;;;;;;19.71;100.00;100556.97;6125990;23;20370;-82
2022/07/01 07:27:28;;;;;;;6.00;1.35;;;;;;;19.85;100.00;100558.19;6125594;23;20009;-82
2022/07/01 07:29:54;;;;;;;5.22;1.17;;;;;;;19.99;100.00;100548.75;6124968;23;20508;-81
2022/07/01 07:32:19;;;;;;;5.38;1.33;;;;;;;19.97;100.00;100558.72;6125145;23;20002;-81
2022/07/01 07:34:44;;;;;;;7.70;1.40;;;;;;;20.14;100.00;100547.13;6125446;23;20064;-81
2022/07/01 07:37:10;;;;;;;10.35;1.98;;;;;;;19.82;100.00;100547.84;6124979;23;20002;-81
2022/07/01 07:39:35;;;;;;;5.22;1.10;;;;;;;19.85;100.00;100554.69;6125100;23;20010;-81
2022/07/01 07:42:01;;;;;;;3.65;1.10;;;;;;;20.03;100.00;100554.59;6125865;23;20425;-81
2022/07/01 07:44:27;;;;;;;6.70;1.70;;;;;;;20.08;100.00;100557.59;6125684;23;20001;-81
2022/07/01 07:46:52;;;;;;;7.22;1.55;;;;;;;20.15;100.00;100570.09;6123467;23;20064;-81
2022/07/01 07:49:18;;;;;;;6.80;1.15;;;;;;;20.16;100.00;100571.78;6125053;23;20006;-81
2022/07/01 07:51:43;;;;;;;6.78;1.70;;;;;;;20.01;100.00;100576.06;6122581;23;20073;-81
2022/07/01 07:54:09;;;;;;;5.95;1.52;;;;;;;19.72;100.00;100574.59;6124662;23;20369;-81
2022/07/01 07:56:34;;;;;;;3.85;1.20;;;;;;;19.87;100.00;100576.69;6124784;23;20002;-81
2022/07/01 07:58:59;;;;;;;6.45;1.13;;;;;;;20.08;100.00;100563.75;6123982;23;20456;-81
2022/07/01 08:01:25;;;;;;;6.22;1.42;;;;;;;20.03;100.00;100582.06;6124123;23;20010;-81
2022/07/01 08:03:50;;;;;;;4.57;1.00;;;;;;;20.10;100.00;100571.59;6124528;23;20170;-81
2022/07/01 08:06:16;;;;;;;5.30;1.55;;;;;;;20.29;100.00;100570.47;6123282;23;20383;-81
2022/07/01 08:08:41;;;;;;;3.55;1.05;;;;;;;20.39;100.00;100576.47;6124629;23;20010;-81
2022/07/01 08:11:07;;;;;;;8.82;1.60;;;;;;;20.57;97.16;100571.84;6124752;23;20010;-81
2022/07/01 08:13:33;;;;;;;9.25;1.95;;;;;;;20.63;97.38;100580.22;6124883;23;20010;-81
2022/07/01 08:15:58;;;;;;;7.07;1.38;;;;;;;20.84;96.03;100577.06;6124703;23;20013;-81
2022/07/01 08:18:24;;;;;;;8.52;1.50;;;;;;;20.57;98.69;100582.50;6124268;23;20013;-81
2022/07/01 08:20:52;;;;;;;4.65;1.58;;;;;;;20.01;100.00;100586.72;6124516;23;20390;-81
2022/07/01 08:23:22;;;;;;;6.85;2.00;;;;;;;20.49;100.00;100579.00;6124294;23;20057;-81
2022/07/01 08:25:48;;;;;;;10.57;2.58;;;;;;;20.74;100.00;100580.72;6124752;23;20009;-80
2022/07/01 08:28:14;;;;;;;6.28;2.25;;;;;;;21.23;96.74;100581.69;6122998;23;20399;-80
2022/07/01 08:30:39;;;;;;;13.32;1.92;;;;;;;21.54;93.21;100587.16;6123850;23;20006;-80
2022/07/01 08:33:04;;;;;;;4.85;1.40;;;;;;;21.92;92.84;100588.19;6124086;23;20012;-82
2022/07/01 08:35:30;;;;;;;10.18;1.58;;;;;;;22.18;90.81;100585.22;6124461;23;20002;-82
2022/07/01 08:37:56;;;;;;;7.25;1.35;;;;;;;22.29;88.90;100586.69;6123078;23;20013;-81
2022/07/01 08:40:28;;;;;;;9.55;1.55;;;;;;;22.09;88.29;100591.63;6125072;23;20478;-81
2022/07/01 08:42:58;;;;;;;7.85;1.45;;;;;;;22.03;88.32;100597.66;6124483;23;20002;-81
2022/07/01 08:45:29;;;;;;;8.00;1.48;;;;;;;21.94;89.09;100598.72;6124093;23;20068;-81
2022/07/01 08:47:57;;;;;;;8.13;1.77;;;;;;;21.44;89.77;100594.53;6146717;23;20014;-81
2022/07/01 08:50:27;;;;;;;7.32;1.30;;;;;;;21.60;90.31;100594.47;6124884;23;20005;-81
2022/07/01 08:52:52;;;;;;;6.35;1.23;;;;;;;22.01;89.04;100594.31;6123897;23;20032;-81
2022/07/01 08:55:20;;;;;;;7.05;1.20;;;;;;;21.75;88.88;100597.28;6124435;23;20421;-81
2022/07/01 08:57:45;;;;;;;7.93;1.08;;;;;;;21.76;86.57;100597.13;6123509;23;20064;-80
2022/07/01 09:00:11;;;;;;;5.10;2.05;;;;;;;22.09;86.70;100598.81;6124425;23;20009;-80
2022/07/01 09:02:57;;;;;;;4.45;1.05;;;;;;;21.66;88.76;100606.31;6124089;23;20017;-80
2022/07/01 09:05:24;;;;;;;6.88;1.48;;;;;;;21.84;85.77;100595.41;6124732;23;20006;-81
2022/07/01 09:08:04;;;;;;;10.05;1.70;;;;;;;21.70;85.83;100603.16;6123178;23;20014;-80
2022/07/01 09:10:34;;;;;;;6.53;1.45;;;;;;;22.09;85.06;100604.97;6124519;23;20012;-80
2022/07/01 09:13:11;;;;;;;18.25;2.47;;;;;;;22.25;85.09;100611.28;6124203;23;20076;-81
2022/07/01 09:15:37;;;;;;;9.68;1.20;;;;;;;22.57;81.51;100613.78;6123898;23;20056;-81
2022/07/01 09:18:13;;;;;;;10.65;1.48;;;;;;;23.28;80.92;100602.00;6123757;23;20073;-82
2022/07/01 09:20:44;;;;;;;7.57;1.13;;;;;;;23.47;75.92;100606.00;6124418;23;20002;-80
2022/07/01 09:23:15;;;;;;;4.45;0.98;;;;;;;23.68;72.95;100614.13;6124057;23;20069;-80
2022/07/01 09:25:45;;;;;;;2.80;0.65;;;;;;;24.60;68.83;100606.59;6122872;23;20429;-82
2022/07/01 09:28:13;;;;;;;4.03;0.80;;;;;;;25.20;68.41;100602.59;6122825;23;20081;-85
2022/07/01 09:30:43;;;;;;;8.43;1.05;;;;;;;25.24;61.59;100609.25;6124247;23;20447;-83
2022/07/01 09:33:15;;;;;;;7.70;1.17;;;;;;;26.78;58.86;100600.00;6123543;23;20006;-82
2022/07/01 09:35:41;;;;;;;;;;;;;;;27.68;54.90;100605.72;6124536;23;20045;-82
2022/07/01 09:38:10;;;;;;;4.63;0.70;;;;;;;26.70;56.03;100602.91;6123414;23;19912;-82
2022/07/01 09:40:55;;;;;;;4.80;0.57;;;;;;;27.65;55.62;100600.75;6123839;23;20090;-82
2022/07/01 09:43:29;;;;;;;6.47;0.95;;;;;;;28.03;51.78;100601.91;6122584;23;20002;-82
2022/07/01 09:45:59;;;;;;;5.32;0.82;;;;;;;29.04;49.33;100600.19;6123971;23;20006;-81
2022/07/01 09:48:27;;;;;;;16.60;1.17;;;;;;;30.84;45.73;100596.13;6123650;23;20451;-82
2022/07/01 09:50:53;;;;;;;4.82;1.35;;;;;;;28.35;43.99;100602.75;6126049;23;20075;-82
2022/07/01 09:53:19;;;;;;;4.07;1.23;;;;;;;28.51;45.39;100614.13;6126449;23;20005;-82
2022/07/01 09:55:45;;;;;;;5.97;1.27;;;;;;;26.72;46.89;100622.38;6126285;23;20083;-82
2022/07/01 09:58:10;;;;;;;5.38;1.02;;;;;;;26.47;45.78;100620.22;6125051;23;20010;-82
2022/07/01 10:00:37;;;;;;;3.72;0.40;;;;;;;25.79;51.32;100617.47;6124612;23;20044;-82
2022/07/01 10:03:06;;;;;;;6.95;0.50;;;;;;;26.36;49.99;100618.09;6125532;23;20445;-82
2022/07/01 10:05:38;;;;;;;6.88;1.27;;;;;;;26.30;50.50;100613.53;6126157;23;20006;-82
2022/07/01 10:08:29;;;;;;;3.72;0.80;;;;;;;25.51;54.95;100612.97;6124924;23;20465;-81
2022/07/01 10:10:57;;;;;;;6.10;1.00;;;;;;;26.19;52.98;100608.75;6126052;23;20440;-82
2022/07/01 10:13:26;;;;;;;5.20;1.02;;;;;;;25.96;51.67;100612.59;6124834;23;20429;-82
2022/07/01 10:15:53;;;;;;;3.60;0.50;;;;;;;25.99;52.56;100601.44;6125429;23;20008;-82
2022/07/01 10:18:22;;;;;;;4.30;1.02;;;;;;;26.90;49.52;100611.00;6125562;23;20006;-82
2022/07/01 10:20:49;;;;;;;6.68;0.85;;;;;;;27.35;48.04;100615.75;6125902;23;20026;-82
2022/07/01 10:23:14;;;;;;;5.03;0.70;;;;;;;27.47;47.38;100609.50;6125971;23;19998;-82
2022/07/01 10:25:40;;;;;;;4.55;0.70;;;;;;;27.35;46.25;100615.75;6125642;23;20094;-82
2022/07/01 10:28:19;;;;;;;4.68;1.40;;;;;;;27.18;46.14;100610.75;6124649;23;20313;-82
2022/07/01 10:30:48;;;;;;;3.40;0.50;;;;;;;27.26;46.59;100612.44;6125487;23;20006;-82
2022/07/01 10:33:29;;;;;;;5.07;1.15;;;;;;;27.09;48.31;100604.78;6125118;23;20024;-82
2022/07/01 10:35:55;;;;;;;4.43;0.70;;;;;;;26.74;48.93;100614.91;6124454;23;20002;-82
2022/07/01 10:38:20;;;;;;;3.08;0.63;;;;;;;26.02;51.95;100616.34;6124870;23;20002;-82
2022/07/01 10:40:49;;;;;;;4.25;0.80;;;;;;;26.19;47.89;100614.16;6123384;23;20057;-82
2022/07/01 10:43:16;;;;;;;4.05;0.90;;;;;;;26.15;50.23;100620.97;6125706;23;19998;-82
2022/07/01 10:45:45;;;;;;;3.63;0.50;;;;;;;25.60;49.06;100620.88;6125928;23;20306;-82
2022/07/01 10:48:20;;;;;;;6.00;0.90;;;;;;;24.51;51.64;100620.16;6125343;23;20016;-81
2022/07/01 10:50:47;;;;;;;4.68;0.70;;;;;;;23.78;54.67;100629.16;6125542;23;20002;-82
2022/07/01 10:53:12;;;;;;;6.82;0.43;;;;;;;24.17;53.35;100622.63;6125241;23;20026;-82
2022/07/01 10:55:40;;;;;;;4.85;0.70;;;;;;;23.37;56.35;100627.69;6125438;23;20049;-82
2022/07/01 10:58:06;;;;;;;6.75;0.85;;;;;;;23.26;58.70;100631.66;6124563;23;20465;-82
2022/07/01 11:00:34;;;;;;;2.97;0.52;;;;;;;23.33;56.01;100637.94;6124980;23;20065;-82
2022/07/01 11:03:11;;;;;;;6.88;0.93;;;;;;;23.22;58.96;100632.19;6125236;23;20002;-83
2022/07/01 11:05:37;;;;;;;6.38;1.65;;;;;;;23.39;57.99;100632.88;6125140;23;20057;-82
2022/07/01 11:08:05;;;;;;;3.72;0.75;;;;;;;23.23;59.80;100634.69;6123835;23;20021;-82
2022/07/01 11:10:30;;;;;;;2.80;0.63;;;;;;;23.35;58.36;100633.22;6124725;23;20429;-82
2022/07/01 11:12:56;;;;;;;4.15;0.68;;;;;;;23.75;58.13;100622.25;6124194;23;20041;-82
2022/07/01 11:15:22;;;;;;;3.67;0.70;;;;;;;23.84;58.87;100633.78;6125287;23;20005;-82
2022/07/01 11:17:50;;;;;;;4.43;0.98;;;;;;;23.93;59.64;100638.84;6124099;23;20009;-82
2022/07/01 11:20:15;;;;;;;6.35;1.38;;;;;;;23.93;57.02;100646.91;6123593;23;20010;-82
2022/07/01 11:22:41;;;;;;;4.70;0.70;;;;;;;24.07;53.73;100639.00;6124638;23;20089;-82
2022/07/01 11:25:13;;;;;;;4.57;0.80;;;;;;;24.58;54.40;100641.69;6125291;23;20436;-82
2022/07/01 11:27:39;;;;;;;4.22;0.57;;;;;;;24.43;55.12;100631.00;6124759;23;20072;-82
2022/07/01 11:30:11;;;;;;;3.65;0.90;;;;;;;24.78;52.84;100625.78;6124519;23;20010;-82
2022/07/01 11:32:41;;;;;;;7.53;0.80;;;;;;;24.60;51.57;100628.09;6125341;23;20056;-82